createdAt,value
2022-09-04T00:02:42.319Z,1.60
2022-09-04T00:08:03.039Z,3.08
2022-09-04T00:13:30.965Z,1.75
2022-09-04T00:18:38.355Z,1.73
2022-09-04T00:23:55.883Z,2.10
2022-09-04T00:29:06.823Z,2.10
2022-09-04T00:34:23.827Z,2.38
2022-09-04T00:39:37.570Z,1.63
2022-09-04T00:45:01.984Z,1.83
2022-09-04T00:50:07.339Z,1.98
2022-09-04T00:55:14.845Z,2.38
2022-09-04T01:00:22.122Z,2.30
2022-09-04T01:05:36.238Z,2.05
2022-09-04T01:10:51.584Z,1.83
2022-09-04T01:16:01.720Z,2.67
2022-09-04T01:21:24.346Z,1.70
2022-09-04T01:26:48.146Z,2.60
2022-09-04T01:32:01.570Z,2.40
2022-09-04T01:37:48.221Z,2.55
2022-09-04T01:43:11.341Z,2.55
2022-09-04T01:48:21.629Z,2.53
2022-09-04T01:53:32.775Z,3.00
2022-09-04T01:58:44.455Z,3.67
2022-09-04T02:03:57.934Z,2.85
2022-09-04T02:09:21.959Z,2.42
2022-09-04T02:14:40.316Z,2.70
2022-09-04T02:19:42.172Z,2.08
2022-09-04T02:25:02.530Z,2.22
2022-09-04T02:30:10.556Z,2.13
2022-09-04T02:35:24.253Z,2.40
2022-09-04T02:40:49.702Z,2.58
2022-09-04T02:46:03.297Z,2.17
2022-09-04T02:51:23.847Z,2.08
2022-09-04T02:57:09.329Z,2.08
2022-09-04T03:02:21.484Z,2.00
2022-09-04T03:07:33.263Z,2.55
2022-09-04T03:13:02.602Z,1.95
2022-09-04T03:18:31.971Z,2.10
2022-09-04T03:24:13.977Z,2.30
2022-09-04T03:29:16.304Z,1.92
2022-09-04T03:34:49.783Z,1.88
2022-09-04T03:40:10.603Z,2.30
2022-09-04T03:45:37.125Z,2.28
2022-09-04T03:50:57.472Z,2.08
2022-09-04T03:56:36.549Z,2.30
2022-09-04T04:01:41.353Z,2.38
2022-09-04T04:06:53.812Z,2.95
2022-09-04T04:12:14.666Z,2.33
2022-09-04T04:18:13.495Z,2.35
2022-09-04T04:23:34.211Z,2.40
2022-09-04T04:29:00.043Z,2.15
2022-09-04T04:34:04.659Z,2.47
2022-09-04T04:39:44.850Z,2.28
2022-09-04T04:45:30.199Z,2.35
2022-09-04T04:51:05.423Z,1.88
2022-09-04T04:56:46.265Z,2.42
2022-09-04T05:02:10.979Z,2.40
2022-09-04T05:07:37.365Z,2.70
2022-09-04T05:12:54.257Z,2.70
2022-09-04T05:18:06.705Z,2.10
2022-09-04T05:23:17.311Z,2.60
2022-09-04T05:28:40.843Z,2.50
2022-09-04T05:33:48.713Z,2.65
2022-09-04T05:38:58.070Z,2.60
2022-09-04T05:44:21.642Z,2.30
2022-09-04T05:49:32.479Z,2.92
2022-09-04T05:54:51.403Z,1.90
2022-09-04T06:00:16.306Z,2.65
2022-09-04T06:05:39.744Z,2.20
2022-09-04T06:10:59.468Z,2.33
2022-09-04T06:16:25.820Z,1.88
2022-09-04T06:22:02.286Z,2.10
2022-09-04T06:27:20.994Z,2.13
2022-09-04T06:32:37.823Z,2.30
2022-09-04T06:37:57.670Z,2.40
2022-09-04T06:43:29.633Z,2.30
2022-09-04T06:49:00.976Z,2.30
2022-09-04T06:54:26.722Z,3.28
2022-09-04T06:59:39.970Z,2.40
2022-09-04T07:05:09.968Z,2.25
2022-09-04T07:10:20.748Z,2.40
2022-09-04T07:15:31.644Z,2.08
2022-09-04T07:20:48.809Z,2.28
2022-09-04T07:26:13.773Z,2.73
2022-09-04T07:31:35.288Z,2.30
2022-09-04T07:37:23.462Z,2.80
2022-09-04T07:42:53.994Z,3.08
2022-09-04T07:48:09.501Z,2.47
2022-09-04T07:53:45.061Z,2.63
2022-09-04T07:58:55.453Z,2.72
2022-09-04T08:04:38.318Z,2.45
2022-09-04T08:09:58.733Z,2.30
2022-09-04T08:15:03.963Z,2.78
2022-09-04T08:20:24.599Z,2.40
2022-09-04T08:25:55.901Z,2.45
2022-09-04T08:31:11.435Z,2.35
2022-09-04T08:36:45.402Z,2.50
2022-09-04T08:42:06.030Z,2.13
2022-09-04T08:47:14.211Z,2.35
2022-09-04T08:52:50.892Z,2.13
2022-09-04T08:58:14.522Z,2.80
2022-09-04T09:03:56.940Z,2.50
2022-09-04T09:09:31.325Z,2.17
2022-09-04T09:14:36.469Z,2.47
2022-09-04T09:20:00.734Z,2.42
2022-09-04T09:25:14.539Z,2.75
2022-09-04T09:30:24.851Z,2.50
2022-09-04T09:35:58.110Z,2.63
2022-09-04T09:41:18.148Z,2.20
2022-09-04T09:46:41.307Z,2.47
2022-09-04T09:52:07.657Z,1.80
2022-09-04T09:57:36.652Z,2.30
2022-09-04T10:03:09.473Z,2.05
2022-09-04T10:08:35.773Z,2.10
2022-09-04T10:13:59.510Z,2.20
2022-09-04T10:19:19.734Z,1.63
2022-09-04T10:24:27.372Z,2.45
2022-09-04T10:29:48.285Z,2.03
2022-09-04T10:34:56.326Z,1.95
2022-09-04T10:40:56.161Z,3.38
2022-09-04T10:46:09.809Z,1.92
2022-09-04T10:51:49.801Z,2.42
2022-09-04T10:56:54.581Z,2.10
2022-09-04T11:02:22.500Z,2.22
2022-09-04T11:12:51.501Z,2.03
2022-09-04T11:18:02.030Z,2.33
2022-09-04T11:23:31.306Z,2.03
2022-09-04T11:29:18.082Z,2.22
2022-09-04T11:34:20.221Z,1.92
2022-09-04T11:39:34.347Z,1.50
2022-09-04T11:44:48.137Z,1.80
2022-09-04T11:50:19.218Z,1.85
2022-09-04T11:55:40.714Z,1.60
2022-09-04T12:01:00.547Z,1.63
2022-09-04T12:06:49.532Z,1.65
2022-09-04T12:12:01.092Z,1.60
2022-09-04T12:17:10.585Z,1.92
2022-09-04T12:22:36.469Z,1.58
2022-09-04T12:27:59.459Z,1.73
2022-09-04T12:33:19.920Z,1.85
2022-09-04T12:38:47.459Z,2.00
2022-09-04T12:44:08.823Z,1.90
2022-09-04T12:49:49.113Z,1.95
2022-09-04T12:55:23.068Z,1.85
2022-09-04T13:00:40.798Z,1.85
2022-09-04T13:06:22.426Z,2.17
2022-09-04T13:11:31.238Z,2.13
2022-09-04T13:17:02.227Z,2.40
2022-09-04T13:22:24.071Z,1.90
2022-09-04T13:27:28.725Z,2.15
2022-09-04T13:32:55.871Z,2.40
2022-09-04T13:38:33.962Z,2.40
2022-09-04T13:48:57.891Z,2.47
2022-09-04T13:54:05.252Z,2.47
2022-09-04T14:04:26.712Z,1.55
2022-09-04T14:09:33.044Z,2.17
2022-09-04T14:15:19.528Z,1.77
2022-09-04T14:20:40.691Z,2.05
2022-09-04T14:25:57.204Z,2.20
2022-09-04T14:31:27.591Z,2.10
2022-09-04T14:36:43.157Z,1.80
2022-09-04T14:42:03.772Z,1.83
2022-09-04T14:47:27.191Z,1.83
2022-09-04T14:52:40.104Z,1.50
2022-09-04T14:57:57.803Z,1.83
2022-09-04T15:08:39.999Z,1.63
2022-09-04T15:13:48.203Z,1.90
2022-09-04T15:19:05.152Z,1.58
2022-09-04T15:24:15.140Z,1.90
2022-09-04T15:29:27.434Z,1.70
2022-09-04T15:34:30.534Z,1.85
2022-09-04T15:39:48.642Z,1.80
2022-09-04T15:44:50.854Z,1.73
2022-09-04T15:50:08.071Z,2.13
2022-09-04T15:55:31.227Z,1.52
2022-09-04T16:00:38.781Z,2.00
2022-09-04T16:05:53.397Z,1.60
2022-09-04T16:10:58.098Z,1.73
2022-09-04T16:16:09.163Z,1.77
2022-09-04T16:21:22.514Z,1.77
2022-09-04T16:26:29.145Z,1.88
2022-09-04T16:31:35.006Z,1.90
2022-09-04T16:37:05.226Z,1.98
2022-09-04T16:42:22.980Z,2.00
2022-09-04T16:47:41.286Z,2.10
2022-09-04T16:52:46.207Z,1.90
2022-09-04T16:58:17.243Z,2.00
2022-09-04T17:03:24.876Z,2.00
2022-09-04T17:08:41.905Z,2.83
2022-09-04T17:13:58.679Z,2.25
2022-09-04T17:19:13.577Z,2.35
2022-09-04T17:29:22.447Z,2.53
2022-09-04T17:30:09.538Z,2.47
2022-09-04T17:40:44.397Z,2.15
2022-09-04T17:41:36.341Z,2.05
2022-09-04T17:47:06.886Z,1.60
2022-09-04T17:52:08.946Z,1.92
2022-09-04T17:57:51.233Z,1.73
2022-09-04T18:03:21.050Z,1.95
2022-09-04T18:08:32.943Z,2.22
2022-09-04T18:14:07.053Z,1.95
2022-09-04T18:19:15.036Z,1.58
2022-09-04T18:24:21.651Z,2.22
2022-09-04T18:32:36.315Z,1.97
2022-09-04T18:37:19.828Z,2.17
2022-09-04T18:43:18.204Z,1.98
2022-09-04T18:50:28.382Z,2.25
2022-09-04T18:51:54.967Z,2.30
2022-09-04T18:57:06.580Z,2.58
2022-09-04T19:02:30.902Z,2.17
2022-09-04T19:07:55.677Z,1.92
2022-09-04T19:13:22.507Z,2.40
2022-09-04T19:18:45.367Z,2.25
2022-09-04T19:23:58.866Z,2.08
2022-09-04T19:29:13.686Z,2.20
2022-09-04T19:34:18.370Z,2.10
2022-09-04T19:45:57.247Z,2.15
2022-09-04T19:46:11.432Z,2.63
2022-09-04T19:53:18.246Z,2.80
2022-09-04T19:56:01.475Z,2.30
2022-09-04T20:01:13.198Z,2.78
2022-09-04T20:06:36.680Z,3.13
2022-09-04T20:11:59.341Z,2.67
2022-09-04T20:17:31.102Z,3.00
2022-09-04T20:22:45.565Z,3.13
2022-09-04T20:27:54.323Z,2.55
2022-09-04T20:33:11.516Z,2.90
2022-09-04T20:38:23.334Z,2.70
2022-09-04T20:43:53.375Z,2.67
2022-09-04T20:52:50.731Z,3.03
2022-09-04T20:54:47.997Z,2.85
2022-09-04T21:03:06.794Z,3.40
2022-09-04T21:06:07.141Z,3.40
2022-09-04T21:11:38.956Z,2.85
2022-09-04T21:16:59.373Z,3.30
2022-09-04T21:22:20.202Z,2.78
2022-09-04T21:27:53.239Z,2.92
2022-09-04T21:33:27.552Z,2.78
2022-09-04T21:38:27.333Z,3.20
2022-09-04T21:44:06.297Z,3.08
2022-09-04T21:49:32.813Z,3.30
2022-09-04T21:55:58.094Z,2.70
2022-09-04T22:02:38.447Z,3.13
2022-09-04T22:08:51.134Z,3.20
2022-09-04T22:13:34.894Z,2.90
2022-09-04T22:17:43.078Z,3.17
2022-09-04T22:23:32.672Z,3.95
2022-09-04T22:29:26.675Z,3.28
2022-09-04T22:35:15.566Z,3.42
2022-09-04T22:40:22.406Z,3.08
2022-09-04T22:45:50.629Z,2.80
2022-09-04T22:56:15.727Z,3.58
2022-09-04T23:01:36.641Z,3.80
2022-09-04T23:12:30.320Z,2.97
2022-09-04T23:13:47.726Z,2.75
2022-09-04T23:21:24.958Z,3.25
2022-09-04T23:26:48.001Z,3.17
2022-09-04T23:29:49.918Z,3.58
2022-09-04T23:35:36.727Z,3.30
2022-09-04T23:40:38.539Z,3.20
2022-09-04T23:46:01.736Z,3.28
2022-09-04T23:51:18.083Z,2.83
2022-09-04T23:56:29.874Z,3.45
